sensor_id;sensor_type;location;lat;lon;timestamp;P1;durP1;ratioP1;P2;durP2;ratioP2
81351;SDS011;70809;52.184;13.422;2024-02-14T00:00:54;9.63;;;4.78;;
81351;SDS011;70809;52.184;13.422;2024-02-14T00:01:55;11.05;;;5.00;;
81351;SDS011;70809;52.184;13.422;2024-02-14T00:02:57;8.52;;;4.78;;
81351;SDS011;70809;52.184;13.422;2024-02-14T00:03:58;11.27;;;4.80;;
81351;SDS011;70809;52.184;13.422;2024-02-14T00:05:00;12.38;;;5.22;;
81351;SDS011;70809;52.184;13.422;2024-02-14T00:06:03;12.45;;;5.00;;
81351;SDS011;70809;52.184;13.422;2024-02-14T00:07:05;8.10;;;4.70;;
81351;SDS011;70809;52.184;13.422;2024-02-14T00:08:06;9.40;;;5.30;;
81351;SDS011;70809;52.184;13.422;2024-02-14T00:09:09;9.90;;;5.53;;
81351;SDS011;70809;52.184;13.422;2024-02-14T00:10:11;9.98;;;5.10;;
81351;SDS011;70809;52.184;13.422;2024-02-14T00:11:13;7.32;;;4.20;;
81351;SDS011;70809;52.184;13.422;2024-02-14T00:12:14;10.88;;;5.03;;
81351;SDS011;70809;52.184;13.422;2024-02-14T00:13:16;7.43;;;4.43;;
81351;SDS011;70809;52.184;13.422;2024-02-14T00:14:17;7.03;;;4.20;;
81351;SDS011;70809;52.184;13.422;2024-02-14T00:15:19;8.75;;;4.75;;
81351;SDS011;70809;52.184;13.422;2024-02-14T00:16:21;8.10;;;4.68;;
81351;SDS011;70809;52.184;13.422;2024-02-14T00:17:22;7.97;;;4.22;;
81351;SDS011;70809;52.184;13.422;2024-02-14T00:18:24;8.48;;;4.30;;
81351;SDS011;70809;52.184;13.422;2024-02-14T00:19:26;8.10;;;3.95;;
81351;SDS011;70809;52.184;13.422;2024-02-14T00:20:28;8.05;;;4.40;;
81351;SDS011;70809;52.184;13.422;2024-02-14T00:21:29;7.05;;;4.55;;
81351;SDS011;70809;52.184;13.422;2024-02-14T00:22:31;11.20;;;4.57;;
81351;SDS011;70809;52.184;13.422;2024-02-14T00:23:33;6.85;;;4.05;;
81351;SDS011;70809;52.184;13.422;2024-02-14T00:24:36;6.57;;;4.10;;
81351;SDS011;70809;52.184;13.422;2024-02-14T00:25:37;9.38;;;5.35;;
81351;SDS011;70809;52.184;13.422;2024-02-14T00:26:39;10.45;;;4.07;;
81351;SDS011;70809;52.184;13.422;2024-02-14T00:27:41;9.02;;;4.70;;
81351;SDS011;70809;52.184;13.422;2024-02-14T00:28:42;8.35;;;4.30;;
81351;SDS011;70809;52.184;13.422;2024-02-14T00:29:44;9.13;;;4.25;;
81351;SDS011;70809;52.184;13.422;2024-02-14T00:30:45;8.07;;;4.38;;
81351;SDS011;70809;52.184;13.422;2024-02-14T00:31:47;9.57;;;4.47;;
81351;SDS011;70809;52.184;13.422;2024-02-14T00:32:49;10.57;;;4.30;;
81351;SDS011;70809;52.184;13.422;2024-02-14T00:33:51;7.90;;;4.38;;
81351;SDS011;70809;52.184;13.422;2024-02-14T00:34:53;10.13;;;4.60;;
81351;SDS011;70809;52.184;13.422;2024-02-14T00:35:55;11.55;;;4.65;;
81351;SDS011;70809;52.184;13.422;2024-02-14T00:36:56;9.23;;;4.50;;
81351;SDS011;70809;52.184;13.422;2024-02-14T00:37:58;9.13;;;4.80;;
81351;SDS011;70809;52.184;13.422;2024-02-14T00:38:59;11.77;;;4.93;;
81351;SDS011;70809;52.184;13.422;2024-02-14T00:40:03;9.52;;;4.38;;
81351;SDS011;70809;52.184;13.422;2024-02-14T00:41:05;9.05;;;4.60;;
81351;SDS011;70809;52.184;13.422;2024-02-14T00:42:07;10.48;;;4.88;;
81351;SDS011;70809;52.184;13.422;2024-02-14T00:43:09;8.30;;;4.80;;
81351;SDS011;70809;52.184;13.422;2024-02-14T00:44:10;7.57;;;4.50;;
81351;SDS011;70809;52.184;13.422;2024-02-14T00:45:12;10.70;;;5.50;;
81351;SDS011;70809;52.184;13.422;2024-02-14T00:46:15;9.10;;;5.05;;
81351;SDS011;70809;52.184;13.422;2024-02-14T00:47:17;9.95;;;5.03;;
81351;SDS011;70809;52.184;13.422;2024-02-14T00:48:18;8.02;;;4.55;;
81351;SDS011;70809;52.184;13.422;2024-02-14T00:49:20;10.82;;;5.60;;
81351;SDS011;70809;52.184;13.422;2024-02-14T00:50:22;8.55;;;5.03;;
81351;SDS011;70809;52.184;13.422;2024-02-14T00:51:24;7.80;;;4.55;;
81351;SDS011;70809;52.184;13.422;2024-02-14T00:52:26;5.88;;;4.15;;
81351;SDS011;70809;52.184;13.422;2024-02-14T00:53:28;9.25;;;4.20;;
81351;SDS011;70809;52.184;13.422;2024-02-14T00:54:29;7.95;;;4.13;;
81351;SDS011;70809;52.184;13.422;2024-02-14T00:55:32;9.43;;;4.90;;
81351;SDS011;70809;52.184;13.422;2024-02-14T00:56:34;8.82;;;4.70;;
81351;SDS011;70809;52.184;13.422;2024-02-14T00:57:36;8.40;;;4.38;;
81351;SDS011;70809;52.184;13.422;2024-02-14T00:58:38;7.00;;;4.05;;
81351;SDS011;70809;52.184;13.422;2024-02-14T00:59:39;12.70;;;4.97;;
81351;SDS011;70809;52.184;13.422;2024-02-14T01:00:41;8.20;;;4.18;;
81351;SDS011;70809;52.184;13.422;2024-02-14T01:01:43;9.90;;;4.10;;
81351;SDS011;70809;52.184;13.422;2024-02-14T01:02:44;8.82;;;4.43;;
81351;SDS011;70809;52.184;13.422;2024-02-14T01:03:46;9.48;;;4.75;;
81351;SDS011;70809;52.184;13.422;2024-02-14T01:04:47;8.23;;;4.68;;
81351;SDS011;70809;52.184;13.422;2024-02-14T01:05:49;8.48;;;4.55;;
81351;SDS011;70809;52.184;13.422;2024-02-14T01:06:51;7.65;;;4.45;;
81351;SDS011;70809;52.184;13.422;2024-02-14T01:07:52;8.05;;;4.75;;
81351;SDS011;70809;52.184;13.422;2024-02-14T01:08:54;9.07;;;4.38;;
81351;SDS011;70809;52.184;13.422;2024-02-14T01:09:56;8.68;;;4.03;;
81351;SDS011;70809;52.184;13.422;2024-02-14T01:10:59;9.90;;;4.53;;
81351;SDS011;70809;52.184;13.422;2024-02-14T01:12:00;9.43;;;5.20;;
81351;SDS011;70809;52.184;13.422;2024-02-14T01:13:02;9.45;;;4.78;;
81351;SDS011;70809;52.184;13.422;2024-02-14T01:14:03;10.15;;;4.57;;
81351;SDS011;70809;52.184;13.422;2024-02-14T01:15:06;8.25;;;5.10;;
81351;SDS011;70809;52.184;13.422;2024-02-14T01:16:08;10.98;;;5.28;;
81351;SDS011;70809;52.184;13.422;2024-02-14T01:17:09;8.07;;;5.10;;
81351;SDS011;70809;52.184;13.422;2024-02-14T01:18:11;7.57;;;4.53;;
81351;SDS011;70809;52.184;13.422;2024-02-14T01:19:13;8.93;;;4.43;;
81351;SDS011;70809;52.184;13.422;2024-02-14T01:20:15;6.90;;;4.35;;
81351;SDS011;70809;52.184;13.422;2024-02-14T01:21:17;7.70;;;4.00;;
81351;SDS011;70809;52.184;13.422;2024-02-14T01:22:18;7.13;;;4.10;;
81351;SDS011;70809;52.184;13.422;2024-02-14T01:23:20;8.13;;;4.70;;
81351;SDS011;70809;52.184;13.422;2024-02-14T01:24:22;7.43;;;4.43;;
81351;SDS011;70809;52.184;13.422;2024-02-14T01:25:23;10.73;;;4.57;;
81351;SDS011;70809;52.184;13.422;2024-02-14T01:26:26;10.13;;;4.70;;
81351;SDS011;70809;52.184;13.422;2024-02-14T01:27:28;10.40;;;4.88;;
81351;SDS011;70809;52.184;13.422;2024-02-14T01:28:30;6.45;;;4.20;;
81351;SDS011;70809;52.184;13.422;2024-02-14T01:29:31;9.02;;;4.38;;
81351;SDS011;70809;52.184;13.422;2024-02-14T01:30:33;8.77;;;4.47;;
81351;SDS011;70809;52.184;13.422;2024-02-14T01:31:42;9.90;;;4.78;;
81351;SDS011;70809;52.184;13.422;2024-02-14T01:32:44;8.45;;;4.75;;
81351;SDS011;70809;52.184;13.422;2024-02-14T01:33:47;10.10;;;5.03;;
81351;SDS011;70809;52.184;13.422;2024-02-14T01:34:49;11.55;;;5.28;;
81351;SDS011;70809;52.184;13.422;2024-02-14T01:35:51;8.98;;;4.32;;
81351;SDS011;70809;52.184;13.422;2024-02-14T01:36:54;8.50;;;4.95;;
81351;SDS011;70809;52.184;13.422;2024-02-14T01:37:56;9.18;;;4.95;;
81351;SDS011;70809;52.184;13.422;2024-02-14T01:38:58;7.80;;;4.40;;
81351;SDS011;70809;52.184;13.422;2024-02-14T01:39:59;7.28;;;4.45;;
81351;SDS011;70809;52.184;13.422;2024-02-14T01:41:01;8.02;;;4.38;;
81351;SDS011;70809;52.184;13.422;2024-02-14T01:42:05;7.20;;;4.70;;
81351;SDS011;70809;52.184;13.422;2024-02-14T01:43:06;9.95;;;4.90;;
81351;SDS011;70809;52.184;13.422;2024-02-14T01:44:08;7.32;;;4.55;;
81351;SDS011;70809;52.184;13.422;2024-02-14T01:45:10;9.25;;;4.75;;
81351;SDS011;70809;52.184;13.422;2024-02-14T01:46:11;7.57;;;3.72;;
81351;SDS011;70809;52.184;13.422;2024-02-14T01:47:13;9.05;;;5.05;;
81351;SDS011;70809;52.184;13.422;2024-02-14T01:48:15;8.27;;;4.72;;
81351;SDS011;70809;52.184;13.422;2024-02-14T01:49:16;8.50;;;4.45;;
81351;SDS011;70809;52.184;13.422;2024-02-14T01:50:18;9.93;;;4.93;;
81351;SDS011;70809;52.184;13.422;2024-02-14T01:51:20;10.68;;;5.25;;
81351;SDS011;70809;52.184;13.422;2024-02-14T01:52:25;8.85;;;4.72;;
81351;SDS011;70809;52.184;13.422;2024-02-14T01:53:26;9.80;;;5.28;;
81351;SDS011;70809;52.184;13.422;2024-02-14T01:54:29;9.27;;;5.25;;
81351;SDS011;70809;52.184;13.422;2024-02-14T01:55:32;9.60;;;5.15;;
81351;SDS011;70809;52.184;13.422;2024-02-14T01:56:34;10.32;;;5.35;;
81351;SDS011;70809;52.184;13.422;2024-02-14T01:57:37;11.40;;;4.88;;
81351;SDS011;70809;52.184;13.422;2024-02-14T01:58:40;8.27;;;4.72;;
81351;SDS011;70809;52.184;13.422;2024-02-14T01:59:42;8.52;;;4.72;;
81351;SDS011;70809;52.184;13.422;2024-02-14T02:00:44;10.68;;;5.53;;
81351;SDS011;70809;52.184;13.422;2024-02-14T02:01:48;9.15;;;4.32;;
81351;SDS011;70809;52.184;13.422;2024-02-14T02:02:50;10.10;;;5.00;;
81351;SDS011;70809;52.184;13.422;2024-02-14T02:03:54;9.50;;;4.55;;
81351;SDS011;70809;52.184;13.422;2024-02-14T02:04:56;8.68;;;4.60;;
81351;SDS011;70809;52.184;13.422;2024-02-14T02:05:58;9.63;;;4.63;;
81351;SDS011;70809;52.184;13.422;2024-02-14T02:07:00;9.27;;;5.03;;
81351;SDS011;70809;52.184;13.422;2024-02-14T02:08:02;9.38;;;5.35;;
81351;SDS011;70809;52.184;13.422;2024-02-14T02:09:04;9.77;;;4.70;;
81351;SDS011;70809;52.184;13.422;2024-02-14T02:10:06;14.32;;;5.03;;
81351;SDS011;70809;52.184;13.422;2024-02-14T02:11:08;8.48;;;5.38;;
81351;SDS011;70809;52.184;13.422;2024-02-14T02:12:09;8.20;;;4.65;;
81351;SDS011;70809;52.184;13.422;2024-02-14T02:13:13;11.65;;;5.43;;
81351;SDS011;70809;52.184;13.422;2024-02-14T02:14:14;7.97;;;4.55;;
81351;SDS011;70809;52.184;13.422;2024-02-14T02:15:16;8.50;;;5.03;;
81351;SDS011;70809;52.184;13.422;2024-02-14T02:16:20;9.48;;;5.30;;
81351;SDS011;70809;52.184;13.422;2024-02-14T02:17:22;9.68;;;5.10;;
81351;SDS011;70809;52.184;13.422;2024-02-14T02:18:24;10.15;;;5.10;;
81351;SDS011;70809;52.184;13.422;2024-02-14T02:19:26;8.68;;;5.10;;
81351;SDS011;70809;52.184;13.422;2024-02-14T02:20:27;10.23;;;5.20;;
81351;SDS011;70809;52.184;13.422;2024-02-14T02:21:29;10.93;;;5.88;;
81351;SDS011;70809;52.184;13.422;2024-02-14T02:22:31;11.77;;;5.60;;
81351;SDS011;70809;52.184;13.422;2024-02-14T02:23:34;12.70;;;5.57;;
81351;SDS011;70809;52.184;13.422;2024-02-14T02:24:36;11.20;;;5.30;;
81351;SDS011;70809;52.184;13.422;2024-02-14T02:25:37;12.35;;;5.50;;
81351;SDS011;70809;52.184;13.422;2024-02-14T02:26:39;13.10;;;5.40;;
81351;SDS011;70809;52.184;13.422;2024-02-14T02:27:40;9.48;;;5.60;;
81351;SDS011;70809;52.184;13.422;2024-02-14T02:28:42;8.57;;;4.82;;
81351;SDS011;70809;52.184;13.422;2024-02-14T02:29:44;10.98;;;5.20;;
81351;SDS011;70809;52.184;13.422;2024-02-14T02:30:46;11.60;;;5.60;;
81351;SDS011;70809;52.184;13.422;2024-02-14T02:31:47;11.25;;;5.72;;
81351;SDS011;70809;52.184;13.422;2024-02-14T02:32:49;12.93;;;4.90;;
81351;SDS011;70809;52.184;13.422;2024-02-14T02:33:51;10.07;;;5.38;;
81351;SDS011;70809;52.184;13.422;2024-02-14T02:34:53;9.52;;;5.30;;
81351;SDS011;70809;52.184;13.422;2024-02-14T02:35:55;10.75;;;5.20;;
81351;SDS011;70809;52.184;13.422;2024-02-14T02:36:56;11.60;;;5.85;;
81351;SDS011;70809;52.184;13.422;2024-02-14T02:37:58;10.98;;;5.35;;
81351;SDS011;70809;52.184;13.422;2024-02-14T02:39:01;13.07;;;5.55;;
81351;SDS011;70809;52.184;13.422;2024-02-14T02:40:03;10.73;;;5.47;;
81351;SDS011;70809;52.184;13.422;2024-02-14T02:41:05;12.10;;;6.18;;
81351;SDS011;70809;52.184;13.422;2024-02-14T02:42:07;12.80;;;5.75;;
81351;SDS011;70809;52.184;13.422;2024-02-14T02:43:08;17.42;;;5.75;;
81351;SDS011;70809;52.184;13.422;2024-02-14T02:44:10;10.35;;;5.47;;
81351;SDS011;70809;52.184;13.422;2024-02-14T02:45:12;10.27;;;5.93;;
81351;SDS011;70809;52.184;13.422;2024-02-14T02:46:13;8.88;;;5.53;;
81351;SDS011;70809;52.184;13.422;2024-02-14T02:47:15;11.02;;;6.30;;
81351;SDS011;70809;52.184;13.422;2024-02-14T02:48:16;9.57;;;5.85;;
81351;SDS011;70809;52.184;13.422;2024-02-14T02:49:18;9.93;;;6.00;;
81351;SDS011;70809;52.184;13.422;2024-02-14T02:50:20;11.77;;;6.00;;
81351;SDS011;70809;52.184;13.422;2024-02-14T02:51:22;8.65;;;5.18;;
81351;SDS011;70809;52.184;13.422;2024-02-14T02:52:23;11.73;;;6.05;;
81351;SDS011;70809;52.184;13.422;2024-02-14T02:53:25;11.70;;;6.22;;
81351;SDS011;70809;52.184;13.422;2024-02-14T02:54:28;10.73;;;6.50;;
81351;SDS011;70809;52.184;13.422;2024-02-14T02:55:29;11.02;;;6.00;;
81351;SDS011;70809;52.184;13.422;2024-02-14T02:56:31;11.63;;;6.30;;
81351;SDS011;70809;52.184;13.422;2024-02-14T02:57:32;9.60;;;5.85;;
81351;SDS011;70809;52.184;13.422;2024-02-14T02:58:34;10.50;;;5.45;;
81351;SDS011;70809;52.184;13.422;2024-02-14T02:59:36;12.52;;;6.15;;
81351;SDS011;70809;52.184;13.422;2024-02-14T03:00:37;11.60;;;6.30;;
81351;SDS011;70809;52.184;13.422;2024-02-14T03:01:39;9.95;;;5.70;;
81351;SDS011;70809;52.184;13.422;2024-02-14T03:02:41;9.70;;;5.43;;
81351;SDS011;70809;52.184;13.422;2024-02-14T03:03:42;11.65;;;5.65;;
81351;SDS011;70809;52.184;13.422;2024-02-14T03:04:44;10.32;;;5.75;;
81351;SDS011;70809;52.184;13.422;2024-02-14T03:05:53;9.07;;;5.68;;
81351;SDS011;70809;52.184;13.422;2024-02-14T03:06:55;10.48;;;5.25;;
81351;SDS011;70809;52.184;13.422;2024-02-14T03:07:56;8.60;;;5.32;;
81351;SDS011;70809;52.184;13.422;2024-02-14T03:08:58;10.25;;;5.93;;
81351;SDS011;70809;52.184;13.422;2024-02-14T03:10:01;10.50;;;5.47;;
81351;SDS011;70809;52.184;13.422;2024-02-14T03:11:04;10.52;;;5.93;;
81351;SDS011;70809;52.184;13.422;2024-02-14T03:12:06;10.57;;;5.68;;
81351;SDS011;70809;52.184;13.422;2024-02-14T03:13:08;12.10;;;6.03;;
81351;SDS011;70809;52.184;13.422;2024-02-14T03:14:10;13.23;;;5.80;;
81351;SDS011;70809;52.184;13.422;2024-02-14T03:15:11;14.18;;;6.47;;
81351;SDS011;70809;52.184;13.422;2024-02-14T03:16:13;11.93;;;6.15;;
81351;SDS011;70809;52.184;13.422;2024-02-14T03:17:15;9.30;;;5.47;;
81351;SDS011;70809;52.184;13.422;2024-02-14T03:18:16;11.75;;;5.68;;
81351;SDS011;70809;52.184;13.422;2024-02-14T03:19:18;10.02;;;5.82;;
81351;SDS011;70809;52.184;13.422;2024-02-14T03:20:22;10.48;;;6.07;;
81351;SDS011;70809;52.184;13.422;2024-02-14T03:21:24;10.35;;;5.80;;
81351;SDS011;70809;52.184;13.422;2024-02-14T03:22:25;11.52;;;5.78;;
81351;SDS011;70809;52.184;13.422;2024-02-14T03:23:27;12.05;;;5.75;;
81351;SDS011;70809;52.184;13.422;2024-02-14T03:24:29;13.20;;;6.13;;
81351;SDS011;70809;52.184;13.422;2024-02-14T03:25:31;13.30;;;5.80;;
81351;SDS011;70809;52.184;13.422;2024-02-14T03:26:33;10.48;;;5.72;;
81351;SDS011;70809;52.184;13.422;2024-02-14T03:27:35;11.98;;;5.43;;
81351;SDS011;70809;52.184;13.422;2024-02-14T03:28:37;12.70;;;6.05;;
81351;SDS011;70809;52.184;13.422;2024-02-14T03:29:38;11.13;;;5.60;;
81351;SDS011;70809;52.184;13.422;2024-02-14T03:30:40;11.55;;;5.55;;
81351;SDS011;70809;52.184;13.422;2024-02-14T03:31:41;12.35;;;5.97;;
81351;SDS011;70809;52.184;13.422;2024-02-14T03:32:43;11.45;;;5.95;;
81351;SDS011;70809;52.184;13.422;2024-02-14T03:33:46;14.60;;;6.10;;
81351;SDS011;70809;52.184;13.422;2024-02-14T03:34:52;11.23;;;5.43;;
81351;SDS011;70809;52.184;13.422;2024-02-14T03:35:54;10.80;;;5.40;;
81351;SDS011;70809;52.184;13.422;2024-02-14T03:36:56;11.63;;;5.68;;
81351;SDS011;70809;52.184;13.422;2024-02-14T03:37:59;12.05;;;5.38;;
81351;SDS011;70809;52.184;13.422;2024-02-14T03:39:02;11.98;;;5.72;;
81351;SDS011;70809;52.184;13.422;2024-02-14T03:40:06;10.18;;;5.85;;
81351;SDS011;70809;52.184;13.422;2024-02-14T03:41:12;13.55;;;5.93;;
81351;SDS011;70809;52.184;13.422;2024-02-14T03:42:14;11.15;;;5.00;;
81351;SDS011;70809;52.184;13.422;2024-02-14T03:43:15;9.30;;;5.30;;
81351;SDS011;70809;52.184;13.422;2024-02-14T03:44:17;12.30;;;5.78;;
81351;SDS011;70809;52.184;13.422;2024-02-14T03:45:19;11.73;;;6.25;;
81351;SDS011;70809;52.184;13.422;2024-02-14T03:46:20;12.73;;;5.72;;
81351;SDS011;70809;52.184;13.422;2024-02-14T03:47:22;10.35;;;5.75;;
81351;SDS011;70809;52.184;13.422;2024-02-14T03:48:23;9.18;;;5.18;;
81351;SDS011;70809;52.184;13.422;2024-02-14T03:49:25;11.60;;;5.25;;
81351;SDS011;70809;52.184;13.422;2024-02-14T03:50:27;17.17;;;5.68;;
81351;SDS011;70809;52.184;13.422;2024-02-14T03:51:29;12.65;;;6.25;;
81351;SDS011;70809;52.184;13.422;2024-02-14T03:52:30;8.25;;;5.50;;
81351;SDS011;70809;52.184;13.422;2024-02-14T03:53:32;10.63;;;5.45;;
81351;SDS011;70809;52.184;13.422;2024-02-14T03:54:33;10.82;;;5.63;;
81351;SDS011;70809;52.184;13.422;2024-02-14T03:55:35;11.88;;;5.35;;
81351;SDS011;70809;52.184;13.422;2024-02-14T03:56:38;11.93;;;6.15;;
81351;SDS011;70809;52.184;13.422;2024-02-14T03:57:40;10.73;;;5.22;;
81351;SDS011;70809;52.184;13.422;2024-02-14T03:58:41;11.52;;;5.55;;
81351;SDS011;70809;52.184;13.422;2024-02-14T03:59:43;10.90;;;6.50;;
81351;SDS011;70809;52.184;13.422;2024-02-14T04:00:45;9.70;;;4.72;;
81351;SDS011;70809;52.184;13.422;2024-02-14T04:01:46;9.70;;;5.55;;
81351;SDS011;70809;52.184;13.422;2024-02-14T04:02:48;9.32;;;5.57;;
81351;SDS011;70809;52.184;13.422;2024-02-14T04:03:49;10.00;;;5.30;;
81351;SDS011;70809;52.184;13.422;2024-02-14T04:04:51;11.88;;;5.80;;
81351;SDS011;70809;52.184;13.422;2024-02-14T04:05:53;8.93;;;5.13;;
81351;SDS011;70809;52.184;13.422;2024-02-14T04:06:54;10.65;;;5.72;;
81351;SDS011;70809;52.184;13.422;2024-02-14T04:07:56;9.10;;;5.18;;
81351;SDS011;70809;52.184;13.422;2024-02-14T04:08:58;10.55;;;5.18;;
81351;SDS011;70809;52.184;13.422;2024-02-14T04:10:00;8.52;;;4.80;;
81351;SDS011;70809;52.184;13.422;2024-02-14T04:11:01;9.98;;;5.22;;
81351;SDS011;70809;52.184;13.422;2024-02-14T04:12:05;10.60;;;5.75;;
81351;SDS011;70809;52.184;13.422;2024-02-14T04:13:07;11.32;;;5.45;;
81351;SDS011;70809;52.184;13.422;2024-02-14T04:14:09;8.77;;;5.32;;
81351;SDS011;70809;52.184;13.422;2024-02-14T04:15:13;9.10;;;5.07;;
81351;SDS011;70809;52.184;13.422;2024-02-14T04:16:16;11.15;;;5.22;;
81351;SDS011;70809;52.184;13.422;2024-02-14T04:17:20;13.57;;;5.80;;
81351;SDS011;70809;52.184;13.422;2024-02-14T04:18:22;11.82;;;5.45;;
81351;SDS011;70809;52.184;13.422;2024-02-14T04:19:25;8.82;;;5.10;;
81351;SDS011;70809;52.184;13.422;2024-02-14T04:20:26;11.88;;;5.63;;
81351;SDS011;70809;52.184;13.422;2024-02-14T04:21:28;17.23;;;6.85;;
81351;SDS011;70809;52.184;13.422;2024-02-14T04:22:30;9.95;;;6.13;;
81351;SDS011;70809;52.184;13.422;2024-02-14T04:23:31;9.02;;;5.68;;
81351;SDS011;70809;52.184;13.422;2024-02-14T04:24:33;11.95;;;5.90;;
81351;SDS011;70809;52.184;13.422;2024-02-14T04:25:35;13.00;;;6.78;;
81351;SDS011;70809;52.184;13.422;2024-02-14T04:26:37;9.77;;;5.63;;
81351;SDS011;70809;52.184;13.422;2024-02-14T04:27:40;10.57;;;6.47;;
81351;SDS011;70809;52.184;13.422;2024-02-14T04:28:42;12.60;;;6.72;;
81351;SDS011;70809;52.184;13.422;2024-02-14T04:29:45;13.45;;;6.32;;
81351;SDS011;70809;52.184;13.422;2024-02-14T04:30:46;13.32;;;6.63;;
81351;SDS011;70809;52.184;13.422;2024-02-14T04:31:48;12.80;;;6.13;;
81351;SDS011;70809;52.184;13.422;2024-02-14T04:32:53;12.23;;;5.80;;
81351;SDS011;70809;52.184;13.422;2024-02-14T04:33:55;10.02;;;6.45;;
81351;SDS011;70809;52.184;13.422;2024-02-14T04:34:57;11.38;;;6.53;;
81351;SDS011;70809;52.184;13.422;2024-02-14T04:36:00;13.35;;;6.53;;
81351;SDS011;70809;52.184;13.422;2024-02-14T04:37:02;12.77;;;6.85;;
81351;SDS011;70809;52.184;13.422;2024-02-14T04:38:04;9.85;;;5.80;;
81351;SDS011;70809;52.184;13.422;2024-02-14T04:39:05;10.23;;;6.43;;
81351;SDS011;70809;52.184;13.422;2024-02-14T04:40:07;11.65;;;6.78;;
81351;SDS011;70809;52.184;13.422;2024-02-14T04:41:12;11.55;;;5.90;;
81351;SDS011;70809;52.184;13.422;2024-02-14T04:42:14;13.63;;;6.82;;
81351;SDS011;70809;52.184;13.422;2024-02-14T04:43:17;9.63;;;6.05;;
81351;SDS011;70809;52.184;13.422;2024-02-14T04:44:18;12.07;;;6.65;;
81351;SDS011;70809;52.184;13.422;2024-02-14T04:45:20;9.98;;;6.13;;
81351;SDS011;70809;52.184;13.422;2024-02-14T04:46:22;10.45;;;6.25;;
81351;SDS011;70809;52.184;13.422;2024-02-14T04:47:24;13.07;;;6.22;;
81351;SDS011;70809;52.184;13.422;2024-02-14T04:48:26;11.30;;;5.70;;
81351;SDS011;70809;52.184;13.422;2024-02-14T04:49:28;8.88;;;5.65;;
81351;SDS011;70809;52.184;13.422;2024-02-14T04:50:30;10.13;;;5.60;;
81351;SDS011;70809;52.184;13.422;2024-02-14T04:51:32;13.15;;;6.13;;
81351;SDS011;70809;52.184;13.422;2024-02-14T04:52:34;11.02;;;6.07;;
81351;SDS011;70809;52.184;13.422;2024-02-14T04:53:35;11.63;;;6.40;;
81351;SDS011;70809;52.184;13.422;2024-02-14T04:54:37;11.75;;;6.57;;
81351;SDS011;70809;52.184;13.422;2024-02-14T04:55:39;13.98;;;6.85;;
81351;SDS011;70809;52.184;13.422;2024-02-14T04:56:40;13.45;;;6.22;;
81351;SDS011;70809;52.184;13.422;2024-02-14T04:57:42;11.73;;;6.53;;
81351;SDS011;70809;52.184;13.422;2024-02-14T04:58:45;10.93;;;5.63;;
81351;SDS011;70809;52.184;13.422;2024-02-14T04:59:46;12.70;;;5.55;;
81351;SDS011;70809;52.184;13.422;2024-02-14T05:00:48;10.32;;;5.65;;
81351;SDS011;70809;52.184;13.422;2024-02-14T05:01:50;13.93;;;5.38;;
81351;SDS011;70809;52.184;13.422;2024-02-14T05:02:52;11.20;;;6.10;;
81351;SDS011;70809;52.184;13.422;2024-02-14T05:03:53;11.70;;;5.90;;
81351;SDS011;70809;52.184;13.422;2024-02-14T05:04:55;9.20;;;5.78;;
81351;SDS011;70809;52.184;13.422;2024-02-14T05:05:57;10.23;;;6.43;;
81351;SDS011;70809;52.184;13.422;2024-02-14T05:06:58;11.70;;;6.43;;
81351;SDS011;70809;52.184;13.422;2024-02-14T05:08:00;10.75;;;5.70;;
81351;SDS011;70809;52.184;13.422;2024-02-14T05:09:02;9.60;;;5.97;;
81351;SDS011;70809;52.184;13.422;2024-02-14T05:10:04;12.57;;;5.60;;
81351;SDS011;70809;52.184;13.422;2024-02-14T05:11:07;11.88;;;6.18;;
81351;SDS011;70809;52.184;13.422;2024-02-14T05:12:08;10.38;;;5.88;;
81351;SDS011;70809;52.184;13.422;2024-02-14T05:13:10;11.60;;;6.05;;
81351;SDS011;70809;52.184;13.422;2024-02-14T05:14:13;11.27;;;6.25;;
81351;SDS011;70809;52.184;13.422;2024-02-14T05:15:15;10.48;;;6.43;;
81351;SDS011;70809;52.184;13.422;2024-02-14T05:16:17;9.00;;;6.13;;
81351;SDS011;70809;52.184;13.422;2024-02-14T05:17:19;10.55;;;6.18;;
81351;SDS011;70809;52.184;13.422;2024-02-14T05:18:21;12.65;;;7.13;;
81351;SDS011;70809;52.184;13.422;2024-02-14T05:19:23;11.30;;;6.05;;
81351;SDS011;70809;52.184;13.422;2024-02-14T05:20:25;10.48;;;6.32;;
81351;SDS011;70809;52.184;13.422;2024-02-14T05:21:27;11.55;;;6.20;;
81351;SDS011;70809;52.184;13.422;2024-02-14T05:22:28;10.70;;;5.50;;
81351;SDS011;70809;52.184;13.422;2024-02-14T05:23:30;11.02;;;6.65;;
81351;SDS011;70809;52.184;13.422;2024-02-14T05:24:32;12.10;;;5.53;;
81351;SDS011;70809;52.184;13.422;2024-02-14T05:25:33;12.07;;;5.57;;
81351;SDS011;70809;52.184;13.422;2024-02-14T05:26:35;12.98;;;6.20;;
81351;SDS011;70809;52.184;13.422;2024-02-14T05:27:37;12.25;;;6.53;;
81351;SDS011;70809;52.184;13.422;2024-02-14T05:28:39;13.07;;;6.05;;
81351;SDS011;70809;52.184;13.422;2024-02-14T05:29:42;8.98;;;5.35;;
81351;SDS011;70809;52.184;13.422;2024-02-14T05:30:43;12.05;;;5.72;;
81351;SDS011;70809;52.184;13.422;2024-02-14T05:31:45;8.85;;;5.55;;
81351;SDS011;70809;52.184;13.422;2024-02-14T05:32:48;11.50;;;5.60;;
81351;SDS011;70809;52.184;13.422;2024-02-14T05:33:49;9.07;;;5.57;;
81351;SDS011;70809;52.184;13.422;2024-02-14T05:34:51;10.68;;;5.78;;
81351;SDS011;70809;52.184;13.422;2024-02-14T05:35:53;11.10;;;5.78;;
81351;SDS011;70809;52.184;13.422;2024-02-14T05:36:55;11.15;;;5.80;;
81351;SDS011;70809;52.184;13.422;2024-02-14T05:37:57;10.70;;;5.70;;
81351;SDS011;70809;52.184;13.422;2024-02-14T05:39:00;9.93;;;4.97;;
81351;SDS011;70809;52.184;13.422;2024-02-14T05:40:02;10.40;;;5.57;;
81351;SDS011;70809;52.184;13.422;2024-02-14T05:41:05;8.98;;;5.70;;
81351;SDS011;70809;52.184;13.422;2024-02-14T05:42:06;13.05;;;5.30;;
81351;SDS011;70809;52.184;13.422;2024-02-14T05:43:08;9.80;;;5.25;;
81351;SDS011;70809;52.184;13.422;2024-02-14T05:44:10;11.45;;;5.70;;
81351;SDS011;70809;52.184;13.422;2024-02-14T05:45:13;10.77;;;5.35;;
81351;SDS011;70809;52.184;13.422;2024-02-14T05:46:15;9.80;;;5.28;;
81351;SDS011;70809;52.184;13.422;2024-02-14T05:47:16;9.88;;;5.57;;
81351;SDS011;70809;52.184;13.422;2024-02-14T05:48:19;10.50;;;5.78;;
81351;SDS011;70809;52.184;13.422;2024-02-14T05:49:21;12.15;;;5.95;;
81351;SDS011;70809;52.184;13.422;2024-02-14T05:50:23;11.18;;;5.35;;
81351;SDS011;70809;52.184;13.422;2024-02-14T05:51:25;11.35;;;5.47;;
81351;SDS011;70809;52.184;13.422;2024-02-14T05:52:26;11.52;;;4.70;;
81351;SDS011;70809;52.184;13.422;2024-02-14T05:53:29;9.38;;;5.40;;
81351;SDS011;70809;52.184;13.422;2024-02-14T05:54:30;12.35;;;5.05;;
81351;SDS011;70809;52.184;13.422;2024-02-14T05:55:32;11.93;;;5.63;;
81351;SDS011;70809;52.184;13.422;2024-02-14T05:56:34;11.30;;;5.80;;
81351;SDS011;70809;52.184;13.422;2024-02-14T05:57:35;8.07;;;5.30;;
81351;SDS011;70809;52.184;13.422;2024-02-14T05:58:37;10.27;;;5.80;;
81351;SDS011;70809;52.184;13.422;2024-02-14T05:59:39;11.52;;;5.30;;
81351;SDS011;70809;52.184;13.422;2024-02-14T06:00:42;11.70;;;5.35;;
81351;SDS011;70809;52.184;13.422;2024-02-14T06:01:44;11.57;;;5.53;;
81351;SDS011;70809;52.184;13.422;2024-02-14T06:02:45;9.25;;;5.60;;
81351;SDS011;70809;52.184;13.422;2024-02-14T06:03:47;9.73;;;5.18;;
81351;SDS011;70809;52.184;13.422;2024-02-14T06:04:48;11.40;;;5.90;;